Time;durP1;ratioP1;P1;durP2;ratioP2;P2;SDS_P1;SDS_P2;PMS_P1;PMS_P2;Temp;Humidity;BMP_temperature;BMP_pressure;BME280_temperature;BME280_humidity;BME280_pressure;Samples;Min_cycle;Max_cycle;Signal;HPM_P1;HPM_P2
2023/03/08 00:01:13;;;;;;;15.73;7.20;;;12.30;99.90;;;;;;7403100;19;19941;-74
2023/03/08 00:03:41;;;;;;;17.25;7.80;;;12.30;99.90;;;;;;7400886;19;19953;-74
2023/03/08 00:06:10;;;;;;;17.15;7.60;;;12.30;99.90;;;;;;7392931;19;19922;-73
2023/03/08 00:08:36;;;;;;;17.48;7.82;;;12.20;99.90;;;;;;7395308;19;19919;-73
2023/03/08 00:11:06;;;;;;;20.23;7.68;;;12.20;99.90;;;;;;7404460;19;19918;-75
2023/03/08 00:13:33;;;;;;;16.42;7.20;;;12.20;99.90;;;;;;7404295;19;19922;-74
2023/03/08 00:16:00;;;;;;;17.25;7.68;;;12.20;99.90;;;;;;7405479;19;19939;-74
2023/03/08 00:18:26;;;;;;;18.52;8.35;;;12.10;99.90;;;;;;7403070;19;19926;-73
2023/03/08 00:21:22;;;;;;;15.55;7.38;;;12.10;99.90;;;;;;7396753;19;20477;-74
2023/03/08 00:23:50;;;;;;;15.95;7.25;;;12.10;99.90;;;;;;7402583;19;19915;-72
2023/03/08 00:26:16;;;;;;;17.20;7.43;;;12.10;99.90;;;;;;7402753;19;19914;-73
2023/03/08 00:28:41;;;;;;;16.50;7.00;;;12.10;99.90;;;;;;7404480;19;19915;-74
2023/03/08 00:31:10;;;;;;;16.02;7.20;;;12.00;99.90;;;;;;7404690;19;20504;-75
2023/03/08 00:33:36;;;;;;;14.90;7.32;;;12.00;99.90;;;;;;7403645;19;19948;-75
2023/03/08 00:36:13;;;;;;;15.27;6.72;;;12.00;99.90;;;;;;7405756;19;19922;-73
2023/03/08 00:38:40;;;;;;;14.98;5.90;;;12.00;99.90;;;;;;7405721;19;19935;-73
2023/03/08 00:41:06;;;;;;;12.98;5.22;;;12.10;99.90;;;;;;7399526;19;19911;-74
2023/03/08 00:43:32;;;;;;;6.78;3.30;;;12.20;99.90;;;;;;7403470;19;19911;-73
2023/03/08 00:45:58;;;;;;;6.72;2.60;;;12.50;97.80;;;;;;7404427;19;19918;-73
2023/03/08 00:48:24;;;;;;;5.47;2.30;;;12.90;95.10;;;;;;7400750;19;20311;-75
2023/03/08 00:50:50;;;;;;;3.60;1.60;;;13.20;93.50;;;;;;7400773;19;19921;-73
2023/03/08 00:53:16;;;;;;;4.88;1.88;;;13.40;92.40;;;;;;7402794;19;19915;-73
2023/03/08 00:55:53;;;;;;;3.50;1.38;;;13.60;91.80;;;;;;7404452;19;19918;-73
2023/03/08 00:58:20;;;;;;;4.80;1.58;;;13.80;91.00;;;;;;7404392;19;19915;-74
2023/03/08 01:00:47;;;;;;;4.35;1.50;;;13.90;90.50;;;;;;7404001;19;19915;-74
2023/03/08 01:03:13;;;;;;;5.80;1.63;;;13.90;90.30;;;;;;7404030;19;20006;-73
2023/03/08 01:05:51;;;;;;;4.82;1.33;;;13.90;90.00;;;;;;7403695;19;19914;-73
2023/03/08 01:08:18;;;;;;;7.45;1.92;;;14.00;89.80;;;;;;7402386;19;19939;-76
2023/03/08 01:10:52;;;;;;;15.75;5.63;;;13.90;90.20;;;;;;7404990;19;19922;-74
2023/03/08 01:13:19;;;;;;;15.68;6.63;;;13.50;96.00;;;;;;7402245;19;19917;-73
2023/03/08 01:15:45;;;;;;;;;;;13.10;98.10;;;;;;7406981;19;20307;-73
2023/03/08 01:18:11;;;;;;;12.60;5.57;;;12.80;99.00;;;;;;7401999;19;19914;-73
2023/03/08 01:20:37;;;;;;;13.43;5.72;;;12.60;99.30;;;;;;7402247;19;19930;-74
2023/03/08 01:23:03;;;;;;;10.50;5.35;;;12.50;99.90;;;;;;7402851;19;19922;-74
2023/03/08 01:25:29;;;;;;;14.35;6.25;;;12.30;99.90;;;;;;7404317;19;19922;-72
2023/03/08 01:27:55;;;;;;;17.35;6.53;;;12.30;99.90;;;;;;7405476;19;19926;-73
2023/03/08 01:30:21;;;;;;;13.75;6.20;;;12.20;99.90;;;;;;7402769;19;20347;-73
2023/03/08 01:32:47;;;;;;;14.18;6.97;;;12.20;99.90;;;;;;7402856;19;19971;-73
2023/03/08 01:35:13;;;;;;;15.05;7.80;;;12.10;99.90;;;;;;7400744;19;20256;-73
2023/03/08 01:37:38;;;;;;;18.35;7.50;;;12.10;99.90;;;;;;7402975;19;19938;-73
2023/03/08 01:40:06;;;;;;;19.55;8.45;;;12.00;99.90;;;;;;7399952;19;20370;-74
2023/03/08 01:42:32;;;;;;;17.63;7.60;;;12.00;99.90;;;;;;7402714;19;19919;-73
2023/03/08 01:45:02;;;;;;;16.25;7.47;;;11.90;99.90;;;;;;7402280;19;19919;-73
2023/03/08 01:47:34;;;;;;;18.38;7.80;;;11.90;99.90;;;;;;7400575;19;19907;-73
2023/03/08 01:50:10;;;;;;;17.85;8.15;;;11.90;99.90;;;;;;7403229;19;19918;-73
2023/03/08 01:52:45;;;;;;;15.70;7.93;;;11.90;99.90;;;;;;7403775;19;19946;-75
2023/03/08 01:55:13;;;;;;;15.90;7.55;;;11.80;99.90;;;;;;7402711;19;19921;-74
2023/03/08 01:57:42;;;;;;;15.70;7.13;;;11.80;99.90;;;;;;7401470;19;19929;-73
2023/03/08 02:00:17;;;;;;;14.77;7.82;;;11.80;99.90;;;;;;7401456;19;19926;-73
2023/03/08 02:02:51;;;;;;;15.70;7.80;;;11.80;99.90;;;;;;7401989;19;19930;-72
2023/03/08 02:05:19;;;;;;;13.55;7.65;;;11.80;99.90;;;;;;7403230;19;19915;-76
2023/03/08 02:07:45;;;;;;;15.95;7.45;;;11.80;99.90;;;;;;7404113;19;19934;-73
2023/03/08 02:10:12;;;;;;;16.52;5.85;;;11.70;99.90;;;;;;7402315;19;19974;-73
2023/03/08 02:12:39;;;;;;;14.35;6.70;;;11.80;99.90;;;;;;7403874;19;19917;-74
2023/03/08 02:15:09;;;;;;;12.60;5.47;;;11.80;99.90;;;;;;7363917;19;19947;-73
2023/03/08 02:17:38;;;;;;;12.27;5.22;;;11.80;99.90;;;;;;7398269;19;20601;-73
2023/03/08 02:20:16;;;;;;;9.35;3.60;;;11.90;99.30;;;;;;7402372;19;19914;-72
2023/03/08 02:22:44;;;;;;;8.65;3.25;;;12.20;97.20;;;;;;7402377;19;19961;-72
2023/03/08 02:25:18;;;;;;;9.10;2.25;;;12.20;96.50;;;;;;7399858;19;19934;-73
2023/03/08 02:27:44;;;;;;;4.47;1.70;;;12.50;95.20;;;;;;7400934;19;19914;-73
2023/03/08 02:30:12;;;;;;;4.93;1.70;;;12.60;94.30;;;;;;7403695;19;19957;-73
2023/03/08 02:32:38;;;;;;;5.25;1.63;;;12.90;93.30;;;;;;7407744;19;20021;-72
2023/03/08 02:35:04;;;;;;;4.93;1.40;;;13.10;92.40;;;;;;7385688;19;19939;-74
2023/03/08 02:37:31;;;;;;;4.13;1.40;;;13.20;91.80;;;;;;7406669;19;19915;-73
2023/03/08 02:39:57;;;;;;;4.45;1.30;;;13.50;91.10;;;;;;7371655;19;19922;-73
2023/03/08 02:42:23;;;;;;;4.65;1.50;;;13.60;90.80;;;;;;7408930;19;20998;-73
2023/03/08 02:44:49;;;;;;;3.15;1.13;;;13.50;90.90;;;;;;7407841;19;19925;-74
2023/03/08 02:47:15;;;;;;;2.53;0.82;;;13.70;90.40;;;;;;7404769;19;19911;-73
2023/03/08 02:49:40;;;;;;;3.72;0.98;;;13.80;90.00;;;;;;7406949;19;19955;-73
2023/03/08 02:52:06;;;;;;;3.28;0.90;;;13.70;90.00;;;;;;7407074;19;19946;-73
2023/03/08 02:54:32;;;;;;;6.13;1.17;;;13.70;90.00;;;;;;7409117;19;19932;-73
2023/03/08 02:56:58;;;;;;;4.00;1.02;;;13.70;89.90;;;;;;7408930;19;19915;-72
2023/03/08 02:59:25;;;;;;;3.45;1.02;;;13.70;90.00;;;;;;7407693;19;19926;-72
2023/03/08 03:01:51;;;;;;;3.20;1.00;;;13.60;89.90;;;;;;7406774;19;20725;-73
2023/03/08 03:04:17;;;;;;;3.58;1.17;;;13.60;90.10;;;;;;7406164;19;19918;-73
2023/03/08 03:06:43;;;;;;;3.88;1.20;;;13.50;90.20;;;;;;7367816;19;19911;-74
2023/03/08 03:09:10;;;;;;;5.90;1.33;;;13.40;90.40;;;;;;7406945;19;19971;-73
2023/03/08 03:11:36;;;;;;;3.25;1.02;;;13.30;90.60;;;;;;7406553;19;19918;-74
2023/03/08 03:14:02;;;;;;;3.78;1.13;;;13.30;90.60;;;;;;7408215;19;19941;-72
2023/03/08 03:16:28;;;;;;;2.83;1.00;;;13.10;90.80;;;;;;7403806;19;19918;-73
2023/03/08 03:18:55;;;;;;;4.68;0.95;;;13.10;90.80;;;;;;7408482;19;20324;-72
2023/03/08 03:21:22;;;;;;;4.38;1.05;;;13.10;90.90;;;;;;7404736;19;19922;-72
2023/03/08 03:23:48;;;;;;;4.88;0.90;;;13.20;90.70;;;;;;7406796;19;20347;-73
2023/03/08 03:26:16;;;;;;;4.28;0.85;;;13.30;90.60;;;;;;7405745;19;20289;-73
2023/03/08 03:28:43;;;;;;;4.95;1.15;;;13.20;90.60;;;;;;7407358;19;20394;-72
2023/03/08 03:31:19;;;;;;;4.47;0.80;;;13.40;90.40;;;;;;7405821;19;19918;-73
2023/03/08 03:33:46;;;;;;;3.85;1.02;;;13.50;90.20;;;;;;7407591;19;19926;-73
2023/03/08 03:36:15;;;;;;;4.90;0.95;;;13.50;90.10;;;;;;7405912;19;19955;-72
2023/03/08 03:38:42;;;;;;;2.85;0.70;;;13.50;90.20;;;;;;7407455;19;19921;-72
2023/03/08 03:41:10;;;;;;;2.67;0.52;;;13.50;90.10;;;;;;7402479;19;20261;-73
2023/03/08 03:43:37;;;;;;;4.25;1.00;;;13.50;90.10;;;;;;7405068;19;19915;-73
2023/03/08 03:46:08;;;;;;;3.45;0.88;;;13.60;89.70;;;;;;7405323;19;19956;-72
2023/03/08 03:48:35;;;;;;;3.60;0.70;;;13.70;89.60;;;;;;7407540;19;19914;-73
2023/03/08 03:51:02;;;;;;;;;;;13.70;89.20;;;;;;7409502;19;19938;-73
2023/03/08 03:53:29;;;;;;;4.53;0.70;;;13.80;89.10;;;;;;7406720;19;20335;-72
2023/03/08 03:55:55;;;;;;;3.85;0.80;;;13.80;89.30;;;;;;7407393;19;19938;-72
2023/03/08 03:58:21;;;;;;;4.60;0.82;;;13.70;88.90;;;;;;7402883;19;19982;-73
2023/03/08 04:00:46;;;;;;;2.00;0.60;;;13.80;88.70;;;;;;7403405;19;19925;-72
2023/03/08 04:03:12;;;;;;;2.17;0.80;;;13.90;88.40;;;;;;7405293;19;19918;-73
2023/03/08 04:05:38;;;;;;;4.07;0.80;;;14.00;88.10;;;;;;7404751;19;19918;-72
2023/03/08 04:08:06;;;;;;;5.20;0.68;;;14.00;87.80;;;;;;7402624;19;19925;-73
2023/03/08 04:10:32;;;;;;;2.80;0.60;;;14.00;88.10;;;;;;7404138;19;19923;-73
2023/03/08 04:12:58;;;;;;;2.53;0.60;;;13.90;88.10;;;;;;7403432;19;20547;-73
2023/03/08 04:15:24;;;;;;;5.65;1.00;;;13.80;88.30;;;;;;7404102;19;19925;-73
2023/03/08 04:17:51;;;;;;;4.30;0.60;;;13.80;88.40;;;;;;7404922;19;19922;-73
2023/03/08 04:20:17;;;;;;;3.63;0.57;;;13.80;88.40;;;;;;7404832;19;19922;-73
2023/03/08 04:22:43;;;;;;;5.28;0.93;;;13.90;88.30;;;;;;7404172;19;19928;-73
2023/03/08 04:25:09;;;;;;;5.70;0.70;;;13.80;88.50;;;;;;7404375;19;19926;-72
2023/03/08 04:27:35;;;;;;;4.57;1.27;;;13.90;89.00;;;;;;7403255;19;19970;-73
2023/03/08 04:30:02;;;;;;;2.97;0.63;;;13.90;88.30;;;;;;7406048;19;19931;-73
2023/03/08 04:32:29;;;;;;;3.90;0.77;;;14.00;88.00;;;;;;7403260;19;19925;-73
2023/03/08 04:34:55;;;;;;;3.42;0.57;;;14.00;88.00;;;;;;7406105;19;20382;-73
2023/03/08 04:37:21;;;;;;;3.13;0.80;;;14.00;88.10;;;;;;7403618;19;19927;-73
2023/03/08 04:39:47;;;;;;;3.50;0.68;;;14.00;87.90;;;;;;7405784;19;20343;-73
2023/03/08 04:42:12;;;;;;;3.35;0.52;;;14.10;87.80;;;;;;7381043;19;19952;-73
2023/03/08 04:44:39;;;;;;;3.80;0.70;;;14.20;87.50;;;;;;7403359;19;20331;-72
2023/03/08 04:47:05;;;;;;;3.50;0.90;;;14.20;87.40;;;;;;7401082;19;19915;-73
2023/03/08 04:49:31;;;;;;;2.03;0.52;;;14.30;87.10;;;;;;7403461;19;19911;-73
2023/03/08 04:51:57;;;;;;;3.75;0.80;;;14.30;86.90;;;;;;7401833;19;19922;-72
2023/03/08 04:54:23;;;;;;;4.78;1.00;;;14.30;87.00;;;;;;7401214;19;19927;-73
2023/03/08 04:56:49;;;;;;;3.45;0.80;;;14.40;86.80;;;;;;7402465;19;19949;-73
2023/03/08 04:59:15;;;;;;;3.40;0.60;;;14.30;86.90;;;;;;7401546;19;19911;-74
2023/03/08 05:01:41;;;;;;;5.15;0.77;;;14.30;86.90;;;;;;7402337;19;19928;-73
2023/03/08 05:04:10;;;;;;;6.57;0.80;;;14.30;87.10;;;;;;7380015;19;19918;-73
2023/03/08 05:06:36;;;;;;;3.47;0.80;;;14.20;87.30;;;;;;7404742;19;19923;-73
2023/03/08 05:09:02;;;;;;;4.90;0.82;;;14.10;87.40;;;;;;7371800;19;19922;-73
2023/03/08 05:11:28;;;;;;;4.50;0.95;;;14.10;87.40;;;;;;7402529;19;20656;-73
2023/03/08 05:13:56;;;;;;;3.70;0.80;;;14.10;87.30;;;;;;7402874;19;20278;-73
2023/03/08 05:16:23;;;;;;;3.03;0.75;;;14.10;87.40;;;;;;7402528;19;19934;-73
2023/03/08 05:18:49;;;;;;;3.40;0.70;;;14.10;87.30;;;;;;7402357;19;19933;-73
2023/03/08 05:21:18;;;;;;;6.28;0.90;;;14.10;87.20;;;;;;7400843;19;20281;-73
2023/03/08 05:23:45;;;;;;;5.10;0.90;;;14.10;87.20;;;;;;7403868;19;19943;-73
2023/03/08 05:26:13;;;;;;;3.47;1.08;;;14.10;87.30;;;;;;7400014;19;19922;-73
2023/03/08 05:28:40;;;;;;;3.25;0.55;;;14.20;87.00;;;;;;7380504;19;19926;-74
2023/03/08 05:31:18;;;;;;;5.00;0.93;;;14.10;87.00;;;;;;7399637;19;19918;-72
2023/03/08 05:33:48;;;;;;;3.38;1.10;;;14.00;87.60;;;;;;7403295;19;19919;-73
2023/03/08 05:36:14;;;;;;;4.30;0.65;;;13.80;87.90;;;;;;7399346;19;20341;-74
2023/03/08 05:38:40;;;;;;;5.35;1.10;;;13.80;88.30;;;;;;7402036;19;19929;-75
2023/03/08 05:41:10;;;;;;;2.58;0.70;;;13.70;88.30;;;;;;7398801;19;19946;-74
2023/03/08 05:43:36;;;;;;;4.40;1.27;;;13.70;88.40;;;;;;7400225;19;19926;-73
2023/03/08 05:46:07;;;;;;;5.20;0.77;;;13.60;88.70;;;;;;7401800;19;19926;-73
2023/03/08 05:48:34;;;;;;;4.88;0.90;;;13.60;88.90;;;;;;7401882;19;19932;-72
2023/03/08 05:51:12;;;;;;;6.47;0.80;;;13.50;89.00;;;;;;7403832;19;19919;-74
2023/03/08 05:53:38;;;;;;;4.75;0.98;;;13.50;89.20;;;;;;7400984;19;19938;-73
2023/03/08 05:56:22;;;;;;;4.20;1.05;;;13.40;89.60;;;;;;7398990;19;19915;-73
2023/03/08 05:58:48;;;;;;;5.60;1.25;;;13.30;89.90;;;;;;7399773;19;20254;-72
2023/03/08 06:01:20;;;;;;;3.83;1.00;;;13.30;90.00;;;;;;7401840;19;19919;-73
2023/03/08 06:03:48;;;;;;;4.07;0.98;;;13.30;90.10;;;;;;7401151;19;19930;-73
2023/03/08 06:06:15;;;;;;;4.28;0.98;;;13.20;90.00;;;;;;7406279;19;19919;-73
2023/03/08 06:08:41;;;;;;;5.68;1.40;;;13.10;90.20;;;;;;7410538;19;19930;-73
2023/03/08 06:11:07;;;;;;;6.45;1.15;;;13.20;90.50;;;;;;7407156;19;19918;-73
2023/03/08 06:13:34;;;;;;;4.85;1.00;;;13.30;90.40;;;;;;7409608;19;19946;-74
2023/03/08 06:16:00;;;;;;;5.32;1.08;;;13.40;90.20;;;;;;7409473;19;19982;-73
2023/03/08 06:18:27;;;;;;;3.97;0.80;;;13.30;90.20;;;;;;7404614;19;19922;-74
2023/03/08 06:21:12;;;;;;;;;;;13.60;89.80;;;;;;7410566;19;19918;-73
2023/03/08 06:23:39;;;;;;;3.08;1.00;;;13.50;89.80;;;;;;7408667;19;19922;-73
2023/03/08 06:26:06;;;;;;;4.35;1.00;;;13.70;89.20;;;;;;7406129;19;19929;-72
2023/03/08 06:28:32;;;;;;;4.55;1.25;;;13.70;89.00;;;;;;7408267;19;20752;-73
2023/03/08 06:30:58;;;;;;;5.47;1.13;;;13.70;89.20;;;;;;7375196;19;19918;-73
2023/03/08 06:33:27;;;;;;;5.07;1.35;;;13.70;88.90;;;;;;7405970;19;19919;-73
2023/03/08 06:36:04;;;;;;;2.65;0.70;;;13.90;88.40;;;;;;7408533;19;19910;-75
2023/03/08 06:38:33;;;;;;;4.65;1.15;;;13.90;88.40;;;;;;7410834;19;19926;-73
2023/03/08 06:40:59;;;;;;;4.82;0.90;;;14.00;87.90;;;;;;7405913;19;20022;-72
2023/03/08 06:43:25;;;;;;;5.38;1.10;;;14.00;87.70;;;;;;7404946;19;19911;-73
2023/03/08 06:45:52;;;;;;;5.55;1.20;;;14.20;87.40;;;;;;7374996;19;19915;-73
2023/03/08 06:48:18;;;;;;;4.07;0.88;;;14.30;87.00;;;;;;7406742;19;19919;-75
2023/03/08 06:50:45;;;;;;;7.10;0.93;;;14.30;86.80;;;;;;7384638;19;19993;-73
2023/03/08 06:53:11;;;;;;;2.72;0.63;;;14.30;86.60;;;;;;7402344;19;19922;-73
2023/03/08 06:55:38;;;;;;;3.42;0.77;;;14.40;86.30;;;;;;7404760;19;19974;-72
2023/03/08 06:58:04;;;;;;;5.25;0.70;;;14.40;86.40;;;;;;7388951;19;20278;-73
2023/03/08 07:00:31;;;;;;;4.85;0.77;;;14.30;86.60;;;;;;7402880;19;19924;-74
2023/03/08 07:02:56;;;;;;;4.50;0.98;;;14.40;86.40;;;;;;7408949;19;19938;-72
2023/03/08 07:05:22;;;;;;;6.20;1.23;;;14.50;86.30;;;;;;7405117;19;20713;-71
2023/03/08 07:07:48;;;;;;;4.28;1.02;;;14.60;86.60;;;;;;7407902;19;19930;-72
2023/03/08 07:10:18;;;;;;;5.53;1.00;;;14.60;85.80;;;;;;7405496;19;19923;-72
2023/03/08 07:12:47;;;;;;;5.72;1.60;;;14.70;85.70;;;;;;7407203;19;20458;-74
2023/03/08 07:15:15;;;;;;;3.50;0.80;;;14.70;85.60;;;;;;7405141;19;19915;-73
2023/03/08 07:17:42;;;;;;;5.38;1.52;;;14.80;85.50;;;;;;7406935;19;19926;-72
2023/03/08 07:20:09;;;;;;;5.30;1.40;;;14.80;85.30;;;;;;7406564;19;19930;-72
2023/03/08 07:22:35;;;;;;;6.93;1.40;;;14.80;85.40;;;;;;7407320;19;19930;-72
2023/03/08 07:25:01;;;;;;;4.63;0.90;;;14.80;85.50;;;;;;7407417;19;19919;-72
2023/03/08 07:27:26;;;;;;;5.00;1.25;;;14.90;85.50;;;;;;7373176;19;19943;-76
2023/03/08 07:29:52;;;;;;;6.18;1.20;;;14.90;85.40;;;;;;7406414;19;19947;-73
2023/03/08 07:32:18;;;;;;;5.22;1.63;;;15.00;85.10;;;;;;7400411;19;19914;-72
2023/03/08 07:34:44;;;;;;;7.03;1.20;;;15.00;85.10;;;;;;7404707;19;19925;-72
2023/03/08 07:37:11;;;;;;;8.75;1.90;;;15.10;84.90;;;;;;7404727;19;19921;-73
2023/03/08 07:39:37;;;;;;;7.65;1.27;;;15.20;85.00;;;;;;7406855;19;19951;-72
2023/03/08 07:42:04;;;;;;;7.88;1.88;;;15.20;85.10;;;;;;7403439;19;19919;-73
2023/03/08 07:44:29;;;;;;;8.77;1.65;;;15.20;84.80;;;;;;7405021;19;19978;-73
2023/03/08 07:46:55;;;;;;;10.35;1.65;;;15.20;84.90;;;;;;7405636;19;19939;-72
2023/03/08 07:49:21;;;;;;;10.43;1.50;;;15.00;84.90;;;;;;7403617;19;19911;-73
2023/03/08 07:51:52;;;;;;;7.68;1.90;;;15.00;85.20;;;;;;7408293;19;19918;-72
2023/03/08 07:54:18;;;;;;;10.63;2.60;;;15.10;85.00;;;;;;7404148;19;19935;-73
2023/03/08 07:56:44;;;;;;;7.50;1.55;;;15.20;85.40;;;;;;7405941;19;20346;-73
2023/03/08 07:59:10;;;;;;;6.30;1.75;;;15.20;84.80;;;;;;7402718;19;19918;-74
2023/03/08 08:01:36;;;;;;;6.88;1.15;;;15.40;84.70;;;;;;7403782;19;20361;-73
2023/03/08 08:04:03;;;;;;;6.60;1.63;;;15.40;84.40;;;;;;7404370;19;19922;-72
2023/03/08 08:06:29;;;;;;;;;;;15.40;84.50;;;;;;7408341;19;19911;-72
2023/03/08 08:08:55;;;;;;;6.57;1.58;;;15.40;84.50;;;;;;7407175;19;19906;-73
2023/03/08 08:11:22;;;;;;;6.43;2.00;;;15.30;84.60;;;;;;7399895;19;20466;-74
2023/03/08 08:13:48;;;;;;;7.35;1.25;;;15.40;84.80;;;;;;7406809;19;19921;-73
2023/03/08 08:16:16;;;;;;;4.50;1.35;;;15.30;84.80;;;;;;7403890;19;19950;-73
2023/03/08 08:18:42;;;;;;;5.07;1.35;;;15.30;84.70;;;;;;7407049;19;19926;-73
2023/03/08 08:21:12;;;;;;;5.63;1.45;;;15.40;84.50;;;;;;7400862;19;19910;-74
2023/03/08 08:23:39;;;;;;;8.73;2.00;;;15.40;84.70;;;;;;7405918;19;20330;-73
2023/03/08 08:26:10;;;;;;;7.75;1.65;;;15.40;84.60;;;;;;7400176;19;20350;-74
2023/03/08 08:28:38;;;;;;;8.15;1.55;;;15.50;84.50;;;;;;7404356;19;19915;-72
2023/03/08 08:31:09;;;;;;;8.40;1.50;;;15.50;84.30;;;;;;7403231;19;19921;-73
2023/03/08 08:33:36;;;;;;;6.97;1.35;;;15.50;84.30;;;;;;7402787;19;19914;-72
2023/03/08 08:36:08;;;;;;;9.93;1.52;;;15.60;84.30;;;;;;7407154;19;19914;-73
2023/03/08 08:38:34;;;;;;;9.07;1.50;;;15.70;84.10;;;;;;7399409;19;19923;-73
2023/03/08 08:41:04;;;;;;;5.18;1.13;;;15.60;84.20;;;;;;7404237;19;19950;-73
2023/03/08 08:43:30;;;;;;;4.93;1.35;;;15.70;84.30;;;;;;7404440;19;19942;-73
2023/03/08 08:45:58;;;;;;;5.43;1.33;;;15.80;84.20;;;;;;7402766;19;19946;-73
2023/03/08 08:48:25;;;;;;;6.47;1.30;;;16.00;84.20;;;;;;7404039;19;19923;-72
2023/03/08 08:50:51;;;;;;;9.25;1.70;;;16.20;83.80;;;;;;7399549;19;20028;-72
2023/03/08 08:53:18;;;;;;;5.78;1.58;;;16.30;83.50;;;;;;7401062;19;19918;-72
2023/03/08 08:55:44;;;;;;;6.70;1.75;;;16.50;83.60;;;;;;7395637;19;19960;-72
2023/03/08 08:58:10;;;;;;;7.53;1.10;;;16.60;82.70;;;;;;7397396;19;19922;-72
2023/03/08 09:00:36;;;;;;;5.70;1.85;;;16.70;82.10;;;;;;7385518;19;19935;-72
2023/03/08 09:03:04;;;;;;;5.07;1.13;;;16.60;82.60;;;;;;7395862;19;19922;-74
2023/03/08 09:05:31;;;;;;;8.50;1.80;;;16.90;82.20;;;;;;7348755;19;19959;-73
2023/03/08 09:07:59;;;;;;;7.88;1.40;;;17.20;81.60;;;;;;7400987;19;20351;-73
2023/03/08 09:10:28;;;;;;;6.38;1.23;;;17.30;81.20;;;;;;7398181;19;20327;-74
2023/03/08 09:12:54;;;;;;;4.38;1.50;;;17.30;81.00;;;;;;7394646;19;20347;-73
2023/03/08 09:15:21;;;;;;;5.93;1.30;;;17.60;80.50;;;;;;7394863;19;20002;-72
2023/03/08 09:17:48;;;;;;;5.32;1.73;;;17.80;80.30;;;;;;7399385;19;19922;-72
2023/03/08 09:20:14;;;;;;;5.82;1.20;;;18.20;79.80;;;;;;7391624;19;20262;-72
2023/03/08 09:22:40;;;;;;;7.78;1.63;;;18.60;78.60;;;;;;7401761;19;19914;-72
2023/03/08 09:25:08;;;;;;;5.45;1.40;;;19.40;77.20;;;;;;7397569;19;19925;-74
2023/03/08 09:27:34;;;;;;;6.15;1.75;;;20.80;74.30;;;;;;7392823;19;19919;-74
2023/03/08 09:30:00;;;;;;;3.88;1.33;;;20.90;72.60;;;;;;7384304;19;19919;-74
2023/03/08 09:32:26;;;;;;;5.35;1.08;;;19.60;74.40;;;;;;7388060;19;19918;-74
2023/03/08 09:34:53;;;;;;;4.72;1.45;;;19.10;75.70;;;;;;7393728;19;19938;-74
2023/03/08 09:37:19;;;;;;;;;;;18.60;76.70;;;;;;7387194;19;20337;-73
2023/03/08 09:39:45;;;;;;;4.93;1.38;;;19.00;77.00;;;;;;7397396;19;20230;-72
2023/03/08 09:42:37;;;;;;;8.90;2.05;;;19.40;75.40;;;;;;7396129;19;20250;-72
2023/03/08 09:45:18;;;;;;;8.88;1.50;;;20.40;74.50;;;;;;7392384;19;19921;-74
2023/03/08 09:47:50;;;;;;;5.05;1.60;;;20.70;73.70;;;;;;7381924;19;19934;-74
2023/03/08 09:50:38;;;;;;;6.43;1.80;;;20.90;73.30;;;;;;7364142;19;20005;-73
2023/03/08 09:53:26;;;;;;;5.85;1.63;;;20.60;73.60;;;;;;7393140;19;19990;-72
2023/03/08 09:55:58;;;;;;;7.15;1.95;;;19.80;73.90;;;;;;7400760;19;19922;-72
2023/03/08 09:58:39;;;;;;;7.93;1.63;;;20.10;74.50;;;;;;7394137;19;20406;-73
2023/03/08 10:01:35;;;;;;;6.00;1.70;;;19.80;74.30;;;;;;7394790;19;19955;-73
2023/03/08 10:04:33;;;;;;;6.65;2.00;;;19.50;75.50;;;;;;7397906;19;20339;-75
2023/03/08 10:07:11;;;;;;;6.93;1.80;;;19.80;75.10;;;;;;7404871;19;20341;-73
2023/03/08 10:10:06;;;;;;;5.68;1.90;;;19.70;74.20;;;;;;7393076;19;19911;-73
2023/03/08 10:12:56;;;;;;;5.10;1.73;;;19.40;74.80;;;;;;7368702;19;19922;-73
2023/03/08 10:15:25;;;;;;;10.80;2.20;;;19.20;75.00;;;;;;7403782;19;20015;-73
2023/03/08 10:18:11;;;;;;;6.95;1.83;;;19.40;75.50;;;;;;7402741;19;20290;-72
2023/03/08 10:20:39;;;;;;;7.13;2.03;;;19.10;75.30;;;;;;7396639;19;19922;-73
2023/03/08 10:23:15;;;;;;;6.00;1.55;;;19.40;75.10;;;;;;7391947;19;19952;-73
2023/03/08 10:25:42;;;;;;;6.25;1.73;;;19.80;74.20;;;;;;7397361;19;19922;-73
2023/03/08 10:28:17;;;;;;;8.35;1.90;;;20.00;73.70;;;;;;7404625;19;19926;-72
2023/03/08 10:30:52;;;;;;;5.32;1.60;;;19.80;73.90;;;;;;7401824;19;19925;-72
2023/03/08 10:33:20;;;;;;;7.15;2.20;;;20.30;73.50;;;;;;7394714;19;19915;-73
2023/03/08 10:36:15;;;;;;;11.13;2.25;;;20.70;72.70;;;;;;7396993;19;19914;-73
2023/03/08 10:38:42;;;;;;;7.68;2.13;;;20.50;72.40;;;;;;7406443;19;19902;-73
2023/03/08 10:41:17;;;;;;;8.25;1.95;;;21.40;71.50;;;;;;7376567;19;19930;-73
2023/03/08 10:43:49;;;;;;;7.75;1.85;;;21.60;70.30;;;;;;7396286;19;19922;-73
2023/03/08 10:46:18;;;;;;;5.72;1.58;;;21.80;70.50;;;;;;7394122;19;20244;-73
2023/03/08 10:48:44;;;;;;;4.18;1.35;;;21.80;69.60;;;;;;7399818;19;19918;-73
2023/03/08 10:51:25;;;;;;;7.20;2.00;;;20.60;70.50;;;;;;7403298;19;19919;-73
2023/03/08 10:53:55;;;;;;;5.07;1.10;;;20.60;71.80;;;;;;7404665;19;19914;-73
2023/03/08 10:56:49;;;;;;;7.75;2.05;;;21.00;71.40;;;;;;7399046;19;19940;-73
2023/03/08 10:59:31;;;;;;;7.85;1.52;;;20.70;71.80;;;;;;7389349;19;19911;-74
2023/03/08 11:01:59;;;;;;;4.03;1.10;;;20.80;72.10;;;;;;7405393;19;19929;-73
2023/03/08 11:04:27;;;;;;;7.93;1.67;;;20.40;72.10;;;;;;7392197;19;20368;-77
2023/03/08 11:06:53;;;;;;;8.50;2.10;;;20.80;72.20;;;;;;7405369;19;20327;-75
2023/03/08 11:09:26;;;;;;;6.95;1.50;;;21.90;71.00;;;;;;7403103;19;19911;-73
2023/03/08 11:11:53;;;;;;;7.50;1.55;;;21.70;70.50;;;;;;7402587;19;19930;-73
2023/03/08 11:14:19;;;;;;;6.43;2.67;;;21.70;69.80;;;;;;7403713;19;20332;-72
2023/03/08 11:17:10;;;;;;;11.55;2.20;;;21.60;69.70;;;;;;7401106;19;19922;-73
2023/03/08 11:20:06;;;;;;;4.95;1.88;;;22.00;69.10;;;;;;7402016;19;19954;-73
2023/03/08 11:22:40;;;;;;;6.68;1.55;;;22.00;69.00;;;;;;7403635;19;20014;-72
2023/03/08 11:25:32;;;;;;;6.00;1.48;;;22.30;68.60;;;;;;7402708;19;19926;-73
2023/03/08 11:28:15;;;;;;;6.30;2.22;;;22.00;68.40;;;;;;7391391;19;20294;-73
2023/03/08 11:31:15;;;;;;;7.13;1.52;;;22.60;68.20;;;;;;7394192;19;19964;-74
2023/03/08 11:34:18;;;;;;;6.95;1.67;;;22.50;68.30;;;;;;7399565;19;19922;-73
2023/03/08 11:37:11;;;;;;;6.88;1.92;;;23.00;67.80;;;;;;7398112;19;19918;-73
2023/03/08 11:39:47;;;;;;;8.60;2.00;;;22.80;67.40;;;;;;7401960;19;19917;-73
2023/03/08 11:42:22;;;;;;;8.20;1.88;;;22.80;68.20;;;;;;7393256;19;19991;-72
2023/03/08 11:45:37;;;;;;;7.90;1.52;;;22.40;69.00;;;;;;7403655;19;19919;-73
2023/03/08 11:48:22;;;;;;;6.80;1.33;;;22.90;68.70;;;;;;7400437;19;19926;-73
2023/03/08 11:51:04;;;;;;;7.55;1.95;;;22.70;68.80;;;;;;7400322;19;19922;-73
2023/03/08 11:53:46;;;;;;;4.55;1.33;;;22.40;69.10;;;;;;7398714;19;20242;-73
2023/03/08 11:56:45;;;;;;;5.63;2.03;;;22.60;69.10;;;;;;7400928;19;19941;-72
2023/03/08 11:59:30;;;;;;;3.55;1.30;;;22.50;68.70;;;;;;7393365;19;20639;-73
2023/03/08 12:02:05;;;;;;;6.15;2.20;;;22.80;68.30;;;;;;7398870;19;19928;-72
2023/03/08 12:04:37;;;;;;;4.53;1.58;;;23.30;67.90;;;;;;7400307;19;19918;-73
2023/03/08 12:07:28;;;;;;;9.23;2.03;;;23.40;67.20;;;;;;7399622;19;19938;-73
2023/03/08 12:10:08;;;;;;;6.35;1.52;;;24.00;66.10;;;;;;7399223;19;19931;-72
2023/03/08 12:12:41;;;;;;;9.65;2.10;;;22.70;67.70;;;;;;7403631;19;20007;-74
2023/03/08 12:15:27;;;;;;;7.75;1.67;;;23.10;68.20;;;;;;7397953;19;19922;-73
2023/03/08 12:18:00;;;;;;;5.47;1.67;;;22.90;68.10;;;;;;7401280;19;19927;-72
2023/03/08 12:20:33;;;;;;;5.45;1.77;;;22.80;67.60;;;;;;7390949;19;19918;-73
2023/03/08 12:23:17;;;;;;;6.68;1.83;;;22.60;68.10;;;;;;7395725;19;19935;-73
2023/03/08 12:25:49;;;;;;;5.32;1.80;;;22.60;68.00;;;;;;7398288;19;19915;-72
2023/03/08 12:28:19;;;;;;;5.68;2.63;;;23.30;67.30;;;;;;7397283;19;19922;-72
2023/03/08 12:31:19;;;;;;;7.40;1.83;;;23.80;66.10;;;;;;7395011;19;19943;-74
2023/03/08 12:33:48;;;;;;;4.72;1.92;;;23.70;66.30;;;;;;7402855;19;20086;-73
2023/03/08 12:36:17;;;;;;;6.03;1.80;;;23.60;66.50;;;;;;7388107;19;19918;-73
2023/03/08 12:38:45;;;;;;;8.77;2.15;;;23.80;66.30;;;;;;7393720;19;19926;-73
2023/03/08 12:41:28;;;;;;;6.93;2.17;;;23.90;66.10;;;;;;7397247;19;19930;-72
2023/03/08 12:44:05;;;;;;;8.57;2.13;;;24.70;65.40;;;;;;7399910;19;19929;-72
2023/03/08 12:46:52;;;;;;;8.00;2.47;;;24.60;64.80;;;;;;7391727;19;20251;-72
2023/03/08 12:49:26;;;;;;;5.80;1.98;;;24.50;64.70;;;;;;7393196;19;19946;-75
2023/03/08 12:52:05;;;;;;;4.32;1.50;;;25.00;64.00;;;;;;7401311;19;19974;-72
2023/03/08 12:54:33;;;;;;;6.85;1.83;;;25.00;63.00;;;;;;7397444;19;19919;-73
2023/03/08 12:57:12;;;;;;;4.63;1.58;;;24.30;63.20;;;;;;7390331;19;19933;-71
2023/03/08 12:59:40;;;;;;;5.75;1.40;;;24.10;63.50;;;;;;7396546;19;19922;-73
2023/03/08 13:02:28;;;;;;;4.55;1.40;;;23.50;64.60;;;;;;7397038;19;19914;-73